Time;durP1;ratioP1;P1;durP2;ratioP2;P2;SDS_P1;SDS_P2;PMS_P1;PMS_P2;Temp;Humidity;BMP_temperature;BMP_pressure;BME280_temperature;BME280_humidity;BME280_pressure;Samples;Min_cycle;Max_cycle;Signal;HPM_P1;HPM_P2
2024/01/02 00:00:21;;;;;;;2.57;0.80;;;;;;;;;;5028250;28;20115;-69
2024/01/02 00:02:46;;;;;;;0.88;0.52;;;;;;;;;;5028387;28;20796;-69
2024/01/02 00:05:12;;;;;;;4.23;0.80;;;;;;;;;;5023859;28;20022;-69
2024/01/02 00:07:37;;;;;;;3.95;0.90;;;;;;;;;;5023877;28;20264;-69
2024/01/02 00:10:02;;;;;;;3.30;0.73;;;;;;;;;;5026435;28;20017;-69
2024/01/02 00:12:27;;;;;;;1.95;0.82;;;;;;;;;;5025066;28;20278;-69
2024/01/02 00:14:52;;;;;;;1.90;0.90;;;;;;;;;;5025559;28;20378;-69
2024/01/02 00:17:18;;;;;;;7.80;1.23;;;;;;;;;;5025516;28;20774;-70
2024/01/02 00:19:43;;;;;;;2.67;1.10;;;;;;;;;;5027925;28;20695;-69
2024/01/02 00:22:08;;;;;;;2.70;0.80;;;;;;;;;;5027314;28;20025;-70
2024/01/02 00:24:33;;;;;;;1.93;0.67;;;;;;;;;;5027719;28;20320;-70
2024/01/02 00:27:04;;;;;;;4.27;0.93;;;;;;;;;;5027232;28;20262;-64
2024/01/02 00:29:29;;;;;;;2.33;0.93;;;;;;;;;;5029266;28;20658;-64
2024/01/02 00:31:54;;;;;;;3.10;0.80;;;;;;;;;;5029232;28;20014;-64
2024/01/02 00:34:20;;;;;;;2.23;0.77;;;;;;;;;;5024072;28;20360;-64
2024/01/02 00:36:45;;;;;;;2.80;0.90;;;;;;;;;;5022398;28;20259;-64
2024/01/02 00:39:10;;;;;;;2.00;0.80;;;;;;;;;;5027067;28;20758;-64
2024/01/02 00:41:35;;;;;;;1.08;0.70;;;;;;;;;;5029707;28;20277;-64
2024/01/02 00:44:01;;;;;;;1.98;0.70;;;;;;;;;;5021775;28;20068;-64
2024/01/02 00:46:26;;;;;;;4.18;0.82;;;;;;;;;;5023338;28;20033;-64
2024/01/02 00:48:51;;;;;;;0.90;0.60;;;;;;;;;;5028369;28;20037;-64
2024/01/02 00:51:16;;;;;;;0.80;0.63;;;;;;;;;;5023808;28;20309;-64
2024/01/02 00:53:42;;;;;;;1.20;0.60;;;;;;;;;;5023752;28;20266;-64
2024/01/02 00:56:07;;;;;;;2.63;0.63;;;;;;;;;;5028029;28;20277;-64
2024/01/02 00:58:32;;;;;;;3.08;0.90;;;;;;;;;;5022747;28;20108;-64
2024/01/02 01:00:57;;;;;;;2.87;0.60;;;;;;;;;;5022838;28;20022;-64
2024/01/02 01:03:23;;;;;;;2.55;0.80;;;;;;;;;;5025397;28;20329;-64
2024/01/02 01:05:48;;;;;;;2.97;0.60;;;;;;;;;;5027638;28;20014;-64
2024/01/02 01:08:13;;;;;;;1.27;0.68;;;;;;;;;;5024289;28;20274;-64
2024/01/02 01:10:38;;;;;;;1.98;0.98;;;;;;;;;;5021816;28;20022;-64
2024/01/02 01:13:04;;;;;;;1.30;0.60;;;;;;;;;;5023591;28;20029;-64
2024/01/02 01:15:29;;;;;;;2.30;0.63;;;;;;;;;;5018411;28;20311;-64
2024/01/02 01:17:54;;;;;;;2.47;0.70;;;;;;;;;;5024258;28;20278;-64
2024/01/02 01:20:19;;;;;;;1.10;0.60;;;;;;;;;;5026242;28;20054;-64
2024/01/02 01:22:45;;;;;;;1.88;0.55;;;;;;;;;;5032305;28;20371;-64
2024/01/02 01:25:10;;;;;;;1.10;0.70;;;;;;;;;;5029280;28;20155;-64
2024/01/02 01:27:35;;;;;;;2.63;0.70;;;;;;;;;;5032647;28;20306;-64
2024/01/02 01:30:01;;;;;;;1.15;0.70;;;;;;;;;;5033911;28;20261;-64
2024/01/02 01:32:28;;;;;;;3.67;0.80;;;;;;;;;;5031234;28;20063;-64
2024/01/02 01:34:53;;;;;;;1.85;0.93;;;;;;;;;;5032137;28;20128;-64
2024/01/02 01:37:18;;;;;;;3.30;0.80;;;;;;;;;;5034073;28;20147;-69
2024/01/02 01:39:44;;;;;;;0.90;0.60;;;;;;;;;;5033210;28;20029;-68
2024/01/02 01:42:09;;;;;;;0.90;0.80;;;;;;;;;;5032594;28;20267;-68
2024/01/02 01:44:34;;;;;;;0.93;0.50;;;;;;;;;;5030832;28;20266;-69
2024/01/02 01:46:59;;;;;;;2.90;0.80;;;;;;;;;;5027641;28;20278;-67
2024/01/02 01:49:25;;;;;;;1.58;0.60;;;;;;;;;;5029409;28;20265;-69
2024/01/02 01:51:51;;;;;;;1.88;0.77;;;;;;;;;;5024972;28;20474;-69
2024/01/02 01:54:16;;;;;;;3.45;0.77;;;;;;;;;;5033287;28;20116;-69
2024/01/02 01:56:42;;;;;;;2.50;0.70;;;;;;;;;;5030801;28;20096;-69
2024/01/02 01:59:08;;;;;;;1.27;0.68;;;;;;;;;;5030254;28;20294;-68
2024/01/02 02:01:33;;;;;;;1.63;0.70;;;;;;;;;;5021278;28;20030;-68
2024/01/02 02:03:59;;;;;;;1.35;0.57;;;;;;;;;;5026831;28;20021;-68
2024/01/02 02:06:24;;;;;;;1.35;0.60;;;;;;;;;;5026443;28;20022;-68
2024/01/02 02:08:50;;;;;;;0.93;0.43;;;;;;;;;;5033077;28;20037;-69
2024/01/02 02:11:16;;;;;;;1.77;0.80;;;;;;;;;;5031473;28;20290;-69
2024/01/02 02:13:41;;;;;;;3.45;0.47;;;;;;;;;;5026915;28;20025;-69
2024/01/02 02:16:07;;;;;;;1.83;0.80;;;;;;;;;;5030534;28;20045;-69
2024/01/02 02:18:32;;;;;;;3.63;0.45;;;;;;;;;;5025322;28;20018;-68
2024/01/02 02:20:57;;;;;;;0.40;0.40;;;;;;;;;;5030120;28;20017;-68
2024/01/02 02:23:22;;;;;;;0.97;0.70;;;;;;;;;;5031550;28;20472;-69
2024/01/02 02:25:47;;;;;;;0.80;0.43;;;;;;;;;;5017138;28;20774;-69
2024/01/02 02:28:13;;;;;;;1.85;0.60;;;;;;;;;;5029657;28;20750;-69
2024/01/02 02:30:38;;;;;;;9.85;1.08;;;;;;;;;;5025909;28;20063;-69
2024/01/02 02:33:03;;;;;;;2.03;0.63;;;;;;;;;;5032501;28;20120;-68
2024/01/02 02:35:28;;;;;;;2.13;0.50;;;;;;;;;;5031868;28;20707;-69
2024/01/02 02:37:54;;;;;;;0.52;0.40;;;;;;;;;;5032546;28;20259;-69
2024/01/02 02:40:19;;;;;;;0.93;0.50;;;;;;;;;;5030883;28;20025;-69
2024/01/02 02:42:45;;;;;;;1.17;0.30;;;;;;;;;;5030003;28;20021;-69
2024/01/02 02:45:10;;;;;;;2.47;0.60;;;;;;;;;;5028523;28;20623;-69
2024/01/02 02:47:47;;;;;;;0.30;0.30;;;;;;;;;;5032790;28;20025;-64
2024/01/02 02:50:13;;;;;;;2.65;0.85;;;;;;;;;;5028514;28;20017;-66
2024/01/02 02:52:38;;;;;;;0.65;0.30;;;;;;;;;;5031749;28;20101;-64
2024/01/02 02:55:04;;;;;;;1.83;0.60;;;;;;;;;;5028973;28;20029;-64
2024/01/02 02:57:29;;;;;;;0.73;0.35;;;;;;;;;;5031199;28;20278;-64
2024/01/02 02:59:54;;;;;;;0.93;0.50;;;;;;;;;;5031681;28;20021;-64
2024/01/02 03:02:20;;;;;;;0.73;0.40;;;;;;;;;;5029046;28;20029;-64
2024/01/02 03:04:45;;;;;;;1.02;0.35;;;;;;;;;;5030924;28;20274;-64
2024/01/02 03:07:10;;;;;;;1.37;0.50;;;;;;;;;;5030877;28;20022;-64
2024/01/02 03:09:35;;;;;;;0.52;0.40;;;;;;;;;;5029314;28;20332;-64
2024/01/02 03:12:01;;;;;;;2.15;0.60;;;;;;;;;;5028068;28;20100;-64
2024/01/02 03:14:26;;;;;;;2.55;0.57;;;;;;;;;;5031766;28;20115;-64
2024/01/02 03:16:51;;;;;;;0.52;0.40;;;;;;;;;;5030592;28;20053;-64
2024/01/02 03:19:16;;;;;;;1.13;0.30;;;;;;;;;;5028126;28;20076;-64
2024/01/02 03:21:41;;;;;;;0.70;0.40;;;;;;;;;;5027870;28;20295;-64
2024/01/02 03:24:07;;;;;;;0.97;0.40;;;;;;;;;;5020012;28;20298;-64
2024/01/02 03:26:32;;;;;;;1.25;0.30;;;;;;;;;;5014601;28;20310;-64
2024/01/02 03:28:57;;;;;;;0.30;0.30;;;;;;;;;;5029189;28;20023;-64
2024/01/02 03:31:23;;;;;;;0.35;0.30;;;;;;;;;;5030353;28;20477;-64
2024/01/02 03:33:48;;;;;;;1.00;0.35;;;;;;;;;;5031143;28;20049;-64
2024/01/02 03:36:22;;;;;;;2.22;0.40;;;;;;;;;;5031057;28;20389;-64
2024/01/02 03:38:48;;;;;;;1.88;0.50;;;;;;;;;;5021899;28;20017;-64
2024/01/02 03:41:13;;;;;;;0.20;0.20;;;;;;;;;;5024325;28;20029;-64
2024/01/02 03:43:39;;;;;;;0.60;0.40;;;;;;;;;;5026210;28;20481;-64
2024/01/02 03:46:04;;;;;;;0.35;0.35;;;;;;;;;;5022626;28;20060;-64
2024/01/02 03:48:30;;;;;;;3.92;0.40;;;;;;;;;;5020711;28;20045;-64
2024/01/02 03:50:55;;;;;;;1.20;0.43;;;;;;;;;;5029023;28;20022;-64
2024/01/02 03:53:20;;;;;;;3.03;0.65;;;;;;;;;;5030884;28;20270;-64
2024/01/02 03:55:45;;;;;;;1.45;0.88;;;;;;;;;;5026478;28;20029;-69
2024/01/02 03:58:11;;;;;;;0.22;0.22;;;;;;;;;;5026774;28;20508;-69
2024/01/02 04:00:36;;;;;;;0.90;0.40;;;;;;;;;;5025042;28;20036;-69
2024/01/02 04:03:01;;;;;;;0.17;0.15;;;;;;;;;;5027681;28;20281;-69
2024/01/02 04:05:28;;;;;;;0.40;0.40;;;;;;;;;;5025390;28;20409;-69
2024/01/02 04:07:53;;;;;;;0.22;0.22;;;;;;;;;;5028141;28;20144;-69
2024/01/02 04:10:18;;;;;;;1.07;0.20;;;;;;;;;;5026173;28;20104;-69
2024/01/02 04:12:43;;;;;;;0.30;0.30;;;;;;;;;;5030342;28;20730;-70
2024/01/02 04:15:09;;;;;;;0.83;0.30;;;;;;;;;;5026696;28;20818;-69
2024/01/02 04:17:34;;;;;;;1.23;0.35;;;;;;;;;;5025992;28;20800;-69
2024/01/02 04:19:59;;;;;;;0.30;0.30;;;;;;;;;;5025665;28;20021;-68
2024/01/02 04:22:25;;;;;;;0.25;0.25;;;;;;;;;;5025379;28;20286;-69
2024/01/02 04:24:50;;;;;;;0.45;0.40;;;;;;;;;;5028247;28;20044;-69
2024/01/02 04:27:15;;;;;;;1.50;0.40;;;;;;;;;;5029092;28;20065;-69
2024/01/02 04:29:40;;;;;;;0.80;0.50;;;;;;;;;;5029094;28;20341;-68
2024/01/02 04:32:06;;;;;;;0.50;0.40;;;;;;;;;;5028577;28;20349;-69
2024/01/02 04:34:31;;;;;;;0.30;0.30;;;;;;;;;;5029198;28;20088;-69
2024/01/02 04:36:56;;;;;;;0.63;0.40;;;;;;;;;;5028717;28;20033;-67
2024/01/02 04:39:22;;;;;;;1.05;0.30;;;;;;;;;;5027340;28;20262;-68
2024/01/02 04:41:47;;;;;;;0.20;0.20;;;;;;;;;;5024140;28;20022;-69
2024/01/02 04:44:13;;;;;;;0.60;0.35;;;;;;;;;;5022919;28;20028;-68
2024/01/02 04:46:38;;;;;;;0.73;0.40;;;;;;;;;;5030139;28;20041;-69
2024/01/02 04:49:03;;;;;;;0.35;0.20;;;;;;;;;;5030514;28;20269;-69
2024/01/02 04:51:29;;;;;;;0.70;0.40;;;;;;;;;;5028584;28;20026;-69
2024/01/02 04:53:54;;;;;;;0.93;0.50;;;;;;;;;;5026109;28;20394;-68
2024/01/02 04:56:19;;;;;;;0.23;0.20;;;;;;;;;;5034007;28;20018;-68
2024/01/02 04:58:45;;;;;;;0.50;0.40;;;;;;;;;;5032969;28;20271;-69
2024/01/02 05:01:10;;;;;;;0.52;0.50;;;;;;;;;;5033689;28;20022;-69
2024/01/02 05:03:35;;;;;;;0.63;0.40;;;;;;;;;;5032702;28;20028;-67
2024/01/02 05:06:01;;;;;;;0.30;0.30;;;;;;;;;;5033893;28;20055;-64
2024/01/02 05:08:26;;;;;;;1.00;0.47;;;;;;;;;;5030159;28;20320;-64
2024/01/02 05:10:52;;;;;;;0.17;0.17;;;;;;;;;;5030780;28;20045;-64
2024/01/02 05:13:18;;;;;;;0.22;0.20;;;;;;;;;;5033125;28;20025;-64
2024/01/02 05:15:43;;;;;;;0.30;0.30;;;;;;;;;;5029564;28;20065;-64
2024/01/02 05:18:08;;;;;;;0.25;0.25;;;;;;;;;;5027510;28;20367;-64
2024/01/02 05:20:33;;;;;;;3.90;0.43;;;;;;;;;;5033952;28;20120;-64
2024/01/02 05:23:03;;;;;;;0.50;0.20;;;;;;;;;;5028465;28;20291;-64
2024/01/02 05:25:28;;;;;;;0.40;0.35;;;;;;;;;;5032365;28;20273;-64
2024/01/02 05:27:54;;;;;;;2.67;0.50;;;;;;;;;;5031574;28;20389;-64
2024/01/02 05:30:19;;;;;;;0.27;0.27;;;;;;;;;;5031178;28;20021;-64
2024/01/02 05:32:44;;;;;;;0.98;0.30;;;;;;;;;;5023714;28;20269;-64
2024/01/02 05:35:10;;;;;;;0.27;0.20;;;;;;;;;;5024685;28;20035;-65
2024/01/02 05:37:36;;;;;;;1.00;0.30;;;;;;;;;;5017416;28;20346;-64
2024/01/02 05:40:03;;;;;;;0.75;0.25;;;;;;;;;;5032341;28;20024;-64
2024/01/02 05:42:28;;;;;;;0.40;0.40;;;;;;;;;;5029536;28;20040;-64
2024/01/02 05:44:53;;;;;;;1.40;0.32;;;;;;;;;;5023907;28;20029;-64
2024/01/02 05:47:18;;;;;;;0.23;0.23;;;;;;;;;;5029704;28;20022;-64
2024/01/02 05:49:44;;;;;;;0.45;0.28;;;;;;;;;;5025171;28;20263;-64
2024/01/02 05:52:09;;;;;;;0.33;0.33;;;;;;;;;;5033313;28;20429;-64
2024/01/02 05:54:34;;;;;;;0.30;0.30;;;;;;;;;;5033672;28;20746;-64
2024/01/02 05:56:59;;;;;;;0.30;0.30;;;;;;;;;;5031807;28;20312;-64
2024/01/02 05:59:24;;;;;;;1.90;0.40;;;;;;;;;;5032495;28;20266;-64
2024/01/02 06:01:50;;;;;;;0.60;0.37;;;;;;;;;;5027733;28;20775;-64
2024/01/02 06:04:15;;;;;;;0.50;0.30;;;;;;;;;;5030308;28;20263;-64
2024/01/02 06:06:40;;;;;;;0.30;0.30;;;;;;;;;;5018487;28;20258;-64
2024/01/02 06:09:05;;;;;;;0.47;0.20;;;;;;;;;;5030146;28;20266;-64
2024/01/02 06:11:31;;;;;;;0.93;0.30;;;;;;;;;;5031675;28;20282;-64
2024/01/02 06:13:56;;;;;;;0.67;0.30;;;;;;;;;;5032482;28;20021;-64
2024/01/02 06:16:21;;;;;;;0.97;0.50;;;;;;;;;;5032043;28;20282;-68
2024/01/02 06:18:46;;;;;;;2.17;0.40;;;;;;;;;;5031581;28;20273;-69
2024/01/02 06:21:12;;;;;;;0.40;0.40;;;;;;;;;;5023476;28;20282;-69
2024/01/02 06:23:38;;;;;;;0.38;0.30;;;;;;;;;;5029357;28;20286;-69
2024/01/02 06:26:03;;;;;;;0.30;0.30;;;;;;;;;;5029897;28;20552;-69
2024/01/02 06:28:29;;;;;;;2.38;0.30;;;;;;;;;;5031426;28;20105;-69
2024/01/02 06:30:55;;;;;;;0.82;0.50;;;;;;;;;;5029928;28;20156;-69
2024/01/02 06:33:20;;;;;;;0.50;0.40;;;;;;;;;;5032532;28;20051;-69
2024/01/02 06:35:45;;;;;;;1.15;0.60;;;;;;;;;;5032134;28;20025;-68
2024/01/02 06:38:10;;;;;;;0.20;0.20;;;;;;;;;;5030028;28;20026;-69
2024/01/02 06:40:36;;;;;;;0.55;0.28;;;;;;;;;;5026800;28;20321;-68
2024/01/02 06:43:01;;;;;;;0.65;0.50;;;;;;;;;;5031272;28;20137;-68
2024/01/02 06:45:26;;;;;;;0.22;0.22;;;;;;;;;;5031908;28;20366;-69
2024/01/02 06:47:51;;;;;;;2.67;0.43;;;;;;;;;;5030790;28;20028;-69
2024/01/02 06:50:17;;;;;;;0.37;0.30;;;;;;;;;;5029420;28;20268;-69
2024/01/02 06:52:42;;;;;;;0.97;0.40;;;;;;;;;;5030812;28;20270;-69
2024/01/02 06:55:07;;;;;;;0.30;0.30;;;;;;;;;;5025810;28;20262;-69
2024/01/02 06:57:32;;;;;;;1.65;0.45;;;;;;;;;;5029447;28;20332;-69
2024/01/02 06:59:58;;;;;;;0.40;0.30;;;;;;;;;;5031870;28;20422;-68
2024/01/02 07:02:23;;;;;;;0.73;0.25;;;;;;;;;;5032172;28;20845;-69
2024/01/02 07:04:48;;;;;;;1.90;0.40;;;;;;;;;;5027421;28;20022;-69
2024/01/02 07:07:13;;;;;;;0.43;0.30;;;;;;;;;;5019337;28;20329;-69
2024/01/02 07:09:39;;;;;;;0.30;0.30;;;;;;;;;;5025873;28;20738;-69
2024/01/02 07:12:04;;;;;;;0.40;0.40;;;;;;;;;;5028186;28;20750;-69
2024/01/02 07:14:29;;;;;;;1.65;0.50;;;;;;;;;;5030091;28;20025;-69
2024/01/02 07:16:54;;;;;;;0.23;0.23;;;;;;;;;;5027722;28;20044;-69
2024/01/02 07:19:20;;;;;;;0.30;0.30;;;;;;;;;;5028415;28;20281;-69
2024/01/02 07:21:45;;;;;;;0.40;0.40;;;;;;;;;;5031860;28;20297;-69
2024/01/02 07:24:11;;;;;;;1.02;0.70;;;;;;;;;;5030803;28;20283;-69
2024/01/02 07:26:36;;;;;;;1.27;0.40;;;;;;;;;;5028563;28;20593;-65
2024/01/02 07:29:02;;;;;;;0.70;0.43;;;;;;;;;;5029035;28;20294;-64
2024/01/02 07:31:32;;;;;;;0.50;0.27;;;;;;;;;;5024119;28;20366;-64
2024/01/02 07:33:57;;;;;;;1.10;0.40;;;;;;;;;;5025281;28;20270;-64
2024/01/02 07:36:22;;;;;;;0.57;0.43;;;;;;;;;;5030345;28;20018;-64
2024/01/02 07:38:47;;;;;;;0.40;0.40;;;;;;;;;;5027819;28;20453;-64
2024/01/02 07:41:12;;;;;;;1.30;0.40;;;;;;;;;;5030884;28;20285;-64
2024/01/02 07:43:38;;;;;;;0.73;0.30;;;;;;;;;;5030466;28;20048;-64
2024/01/02 07:46:03;;;;;;;0.20;0.20;;;;;;;;;;5030438;28;20270;-64
2024/01/02 07:48:28;;;;;;;0.30;0.30;;;;;;;;;;5027956;28;20088;-64
2024/01/02 07:50:53;;;;;;;0.60;0.50;;;;;;;;;;5012900;28;20014;-64
2024/01/02 07:53:20;;;;;;;0.87;0.40;;;;;;;;;;5030239;28;20258;-64
2024/01/02 07:55:48;;;;;;;1.25;0.50;;;;;;;;;;5027903;28;20345;-64
2024/01/02 07:58:14;;;;;;;1.30;0.35;;;;;;;;;;5026204;28;20075;-64
2024/01/02 08:00:39;;;;;;;0.40;0.35;;;;;;;;;;5025610;28;20029;-64
2024/01/02 08:03:04;;;;;;;0.68;0.30;;;;;;;;;;5027027;28;20192;-64
2024/01/02 08:05:29;;;;;;;1.60;0.50;;;;;;;;;;5027326;28;20381;-65
2024/01/02 08:07:55;;;;;;;0.47;0.30;;;;;;;;;;5029264;28;20734;-64
2024/01/02 08:10:20;;;;;;;1.33;0.40;;;;;;;;;;5028308;28;20888;-64
2024/01/02 08:12:45;;;;;;;0.30;0.30;;;;;;;;;;5024523;28;20377;-64
2024/01/02 08:15:10;;;;;;;0.37;0.33;;;;;;;;;;5026899;28;20267;-64
2024/01/02 08:17:35;;;;;;;0.80;0.40;;;;;;;;;;5026602;28;20270;-64
2024/01/02 08:20:01;;;;;;;1.63;0.40;;;;;;;;;;5025230;28;20361;-64
2024/01/02 08:22:26;;;;;;;1.20;0.45;;;;;;;;;;5021040;28;20365;-64
2024/01/02 08:24:51;;;;;;;2.07;0.33;;;;;;;;;;5027211;28;20397;-65
2024/01/02 08:27:17;;;;;;;0.68;0.38;;;;;;;;;;5028879;28;20747;-64
2024/01/02 08:29:42;;;;;;;1.73;0.55;;;;;;;;;;5028002;28;20021;-65
2024/01/02 08:32:07;;;;;;;0.30;0.30;;;;;;;;;;5026747;28;20072;-64
2024/01/02 08:34:32;;;;;;;0.20;0.20;;;;;;;;;;5029397;28;20025;-64
2024/01/02 08:36:58;;;;;;;0.40;0.30;;;;;;;;;;5029973;28;20742;-65
2024/01/02 08:39:23;;;;;;;2.13;0.50;;;;;;;;;;5026930;28;20266;-64
2024/01/02 08:41:48;;;;;;;0.57;0.30;;;;;;;;;;5030222;28;20316;-64
2024/01/02 08:44:14;;;;;;;0.50;0.40;;;;;;;;;;5030078;28;20032;-65
2024/01/02 08:46:39;;;;;;;2.73;0.40;;;;;;;;;;5018724;28;20770;-64
2024/01/02 08:49:06;;;;;;;0.90;0.33;;;;;;;;;;5028786;28;20828;-64
2024/01/02 08:51:32;;;;;;;0.40;0.30;;;;;;;;;;5026252;28;20770;-65
2024/01/02 08:53:57;;;;;;;0.20;0.20;;;;;;;;;;5032835;28;20025;-64
2024/01/02 08:56:22;;;;;;;0.70;0.30;;;;;;;;;;5032535;28;20254;-64
2024/01/02 08:58:48;;;;;;;0.52;0.45;;;;;;;;;;5028980;28;20294;-65
2024/01/02 09:01:13;;;;;;;0.23;0.20;;;;;;;;;;5026959;28;20056;-64
2024/01/02 09:03:39;;;;;;;1.67;0.30;;;;;;;;;;5016436;28;20770;-64
2024/01/02 09:06:04;;;;;;;0.30;0.30;;;;;;;;;;5023538;28;20017;-64
2024/01/02 09:08:29;;;;;;;0.52;0.30;;;;;;;;;;5013445;28;20267;-64
2024/01/02 09:10:55;;;;;;;0.30;0.30;;;;;;;;;;5030989;28;20037;-64
2024/01/02 09:13:20;;;;;;;0.30;0.30;;;;;;;;;;5029023;28;20099;-64
2024/01/02 09:15:45;;;;;;;0.37;0.30;;;;;;;;;;5029047;28;20386;-65
2024/01/02 09:18:11;;;;;;;0.30;0.30;;;;;;;;;;5030117;28;20694;-64
2024/01/02 09:20:36;;;;;;;0.70;0.37;;;;;;;;;;5030304;28;20100;-64
2024/01/02 09:23:01;;;;;;;1.45;0.38;;;;;;;;;;5026831;28;20377;-64
2024/01/02 09:25:27;;;;;;;0.80;0.38;;;;;;;;;;5030294;28;20089;-64
2024/01/02 09:27:58;;;;;;;0.20;0.20;;;;;;;;;;5029408;28;20053;-65
2024/01/02 09:30:23;;;;;;;0.25;0.25;;;;;;;;;;5018201;28;20017;-64
2024/01/02 09:32:49;;;;;;;0.40;0.28;;;;;;;;;;5024213;28;20025;-64
2024/01/02 09:35:15;;;;;;;0.20;0.20;;;;;;;;;;5020588;28;20029;-64
2024/01/02 09:37:40;;;;;;;1.08;0.60;;;;;;;;;;5030193;28;20378;-64
2024/01/02 09:40:12;;;;;;;0.27;0.20;;;;;;;;;;5030684;28;20017;-64
2024/01/02 09:42:45;;;;;;;0.30;0.30;;;;;;;;;;5032047;28;20278;-64
2024/01/02 09:45:19;;;;;;;0.55;0.40;;;;;;;;;;5034926;28;20033;-64
2024/01/02 09:47:52;;;;;;;0.50;0.28;;;;;;;;;;5031453;28;20022;-69
2024/01/02 09:50:36;;;;;;;1.20;0.30;;;;;;;;;;5034505;28;20025;-69
2024/01/02 09:53:21;;;;;;;1.30;0.40;;;;;;;;;;5025936;28;20405;-69
2024/01/02 09:56:06;;;;;;;0.65;0.30;;;;;;;;;;5001792;28;20057;-69
2024/01/02 09:58:45;;;;;;;0.85;0.30;;;;;;;;;;5026577;28;20033;-69
2024/01/02 10:01:13;;;;;;;0.88;0.40;;;;;;;;;;5024755;28;20029;-69
2024/01/02 10:03:44;;;;;;;0.45;0.30;;;;;;;;;;5034919;28;20030;-68
2024/01/02 10:06:25;;;;;;;0.47;0.30;;;;;;;;;;5030361;28;20022;-69
2024/01/02 10:09:15;;;;;;;0.57;0.20;;;;;;;;;;5025234;28;20104;-68
2024/01/02 10:12:08;;;;;;;0.28;0.25;;;;;;;;;;5030294;28;20108;-69
2024/01/02 10:14:41;;;;;;;0.43;0.20;;;;;;;;;;5032136;28;20017;-68
2024/01/02 10:17:35;;;;;;;3.53;0.30;;;;;;;;;;5033014;28;20105;-69
2024/01/02 10:20:01;;;;;;;0.35;0.28;;;;;;;;;;4979335;28;20058;-69
2024/01/02 10:22:32;;;;;;;0.20;0.20;;;;;;;;;;5025325;28;20061;-69
2024/01/02 10:25:05;;;;;;;0.30;0.30;;;;;;;;;;5032129;28;20105;-69
2024/01/02 10:27:39;;;;;;;1.75;0.30;;;;;;;;;;5032691;28;20092;-69
2024/01/02 10:30:08;;;;;;;0.17;0.17;;;;;;;;;;5031263;28;20017;-69
2024/01/02 10:32:54;;;;;;;1.10;0.43;;;;;;;;;;5032696;28;20033;-69
2024/01/02 10:35:43;;;;;;;0.22;0.20;;;;;;;;;;5034357;28;20392;-67
2024/01/02 10:38:09;;;;;;;1.60;0.35;;;;;;;;;;5029623;28;20017;-69
2024/01/02 10:40:37;;;;;;;0.73;0.37;;;;;;;;;;5029923;28;20033;-69
2024/01/02 10:43:13;;;;;;;0.20;0.20;;;;;;;;;;5030557;28;20278;-69
2024/01/02 10:45:59;;;;;;;1.02;0.50;;;;;;;;;;5030864;28;20021;-69
2024/01/02 10:48:30;;;;;;;0.60;0.40;;;;;;;;;;5011049;28;20371;-66
2024/01/02 10:50:56;;;;;;;0.95;0.40;;;;;;;;;;5025184;28;20104;-68
2024/01/02 10:53:30;;;;;;;1.02;0.30;;;;;;;;;;5024065;28;20180;-68
2024/01/02 10:56:03;;;;;;;0.43;0.30;;;;;;;;;;5024648;28;20030;-68
2024/01/02 10:58:29;;;;;;;0.40;0.40;;;;;;;;;;5030507;28;20385;-69
2024/01/02 11:00:54;;;;;;;0.13;0.13;;;;;;;;;;5022522;28;20025;-69
2024/01/02 11:03:20;;;;;;;1.07;0.40;;;;;;;;;;5027764;28;20029;-68
2024/01/02 11:05:51;;;;;;;0.52;0.50;;;;;;;;;;5030584;28;20385;-68
2024/01/02 11:08:32;;;;;;;0.87;0.20;;;;;;;;;;5029998;28;20037;-68
2024/01/02 11:10:58;;;;;;;0.30;0.25;;;;;;;;;;5020318;28;20385;-69
2024/01/02 11:13:25;;;;;;;0.98;0.50;;;;;;;;;;5028899;28;20032;-69
2024/01/02 11:15:57;;;;;;;0.77;0.30;;;;;;;;;;5029260;28;20564;-69
2024/01/02 11:18:23;;;;;;;0.75;0.38;;;;;;;;;;5028343;28;20026;-68
2024/01/02 11:20:51;;;;;;;0.80;0.40;;;;;;;;;;5023869;28;20025;-69
2024/01/02 11:23:18;;;;;;;0.40;0.30;;;;;;;;;;5030668;28;20079;-67
2024/01/02 11:25:53;;;;;;;0.20;0.20;;;;;;;;;;5031038;28;20083;-69
2024/01/02 11:28:21;;;;;;;3.60;0.73;;;;;;;;;;5027478;28;20021;-68
2024/01/02 11:30:47;;;;;;;1.80;0.45;;;;;;;;;;5030590;28;20591;-69
2024/01/02 11:33:15;;;;;;;0.47;0.40;;;;;;;;;;5031315;28;20025;-69
2024/01/02 11:35:44;;;;;;;1.75;0.30;;;;;;;;;;5026061;28;20022;-68
2024/01/02 11:38:10;;;;;;;0.55;0.40;;;;;;;;;;5031214;28;20087;-69
2024/01/02 11:40:55;;;;;;;0.45;0.40;;;;;;;;;;5027902;28;20026;-69
2024/01/02 11:43:31;;;;;;;2.35;0.50;;;;;;;;;;5018373;28;20049;-68
2024/01/02 11:45:57;;;;;;;0.57;0.40;;;;;;;;;;5023499;28;20381;-68
2024/01/02 11:48:22;;;;;;;0.73;0.40;;;;;;;;;;5027637;28;20018;-69
2024/01/02 11:50:51;;;;;;;1.97;0.20;;;;;;;;;;5026305;28;20060;-69
2024/01/02 11:53:21;;;;;;;0.68;0.30;;;;;;;;;;5025156;28;20032;-67
2024/01/02 11:55:53;;;;;;;1.27;0.40;;;;;;;;;;5029632;28;20017;-68
2024/01/02 11:58:22;;;;;;;3.92;0.30;;;;;;;;;;5027343;28;20048;-67
2024/01/02 12:00:54;;;;;;;0.35;0.30;;;;;;;;;;5030711;28;20025;-68
2024/01/02 12:03:38;;;;;;;2.15;0.40;;;;;;;;;;5024945;28;20108;-68
2024/01/02 12:06:08;;;;;;;0.52;0.45;;;;;;;;;;5023308;28;20021;-64
2024/01/02 12:08:41;;;;;;;0.65;0.35;;;;;;;;;;5021928;28;20025;-65
2024/01/02 12:11:09;;;;;;;0.40;0.38;;;;;;;;;;5023322;28;20066;-65
2024/01/02 12:13:46;;;;;;;1.98;0.57;;;;;;;;;;5026998;28;20037;-64
2024/01/02 12:16:13;;;;;;;0.30;0.30;;;;;;;;;;5024061;28;20053;-64
2024/01/02 12:18:41;;;;;;;1.08;0.40;;;;;;;;;;5024753;28;20524;-64
2024/01/02 12:21:15;;;;;;;0.63;0.40;;;;;;;;;;5022008;28;20420;-64
2024/01/02 12:23:40;;;;;;;0.50;0.28;;;;;;;;;;5022357;28;20021;-64
2024/01/02 12:26:06;;;;;;;0.98;0.32;;;;;;;;;;5018340;28;20493;-64
2024/01/02 12:28:32;;;;;;;0.45;0.30;;;;;;;;;;5026711;28;20021;-64
2024/01/02 12:31:11;;;;;;;2.33;0.40;;;;;;;;;;5025592;28;20469;-65
2024/01/02 12:33:40;;;;;;;0.30;0.30;;;;;;;;;;5029524;28;20014;-64
2024/01/02 12:36:17;;;;;;;0.45;0.43;;;;;;;;;;5025879;28;20025;-64
2024/01/02 12:38:46;;;;;;;0.30;0.30;;;;;;;;;;5027385;28;20477;-65
2024/01/02 12:41:16;;;;;;;0.77;0.40;;;;;;;;;;5030048;28;20064;-64
2024/01/02 12:43:41;;;;;;;0.32;0.32;;;;;;;;;;5028102;28;20552;-64
2024/01/02 12:46:16;;;;;;;1.30;0.43;;;;;;;;;;5031252;28;20156;-64
2024/01/02 12:48:50;;;;;;;0.43;0.40;;;;;;;;;;5030463;28;20067;-64
2024/01/02 12:51:15;;;;;;;0.45;0.30;;;;;;;;;;5030700;28;20029;-65
2024/01/02 12:53:42;;;;;;;0.30;0.30;;;;;;;;;;5029510;28;20028;-64
2024/01/02 12:56:08;;;;;;;1.33;0.40;;;;;;;;;;5029756;28;20028;-64
2024/01/02 12:58:33;;;;;;;0.52;0.45;;;;;;;;;;5030523;28;20021;-64
2024/01/02 13:01:00;;;;;;;0.30;0.30;;;;;;;;;;5027958;28;20477;-64
2024/01/02 13:03:25;;;;;;;0.57;0.50;;;;;;;;;;5026958;28;20068;-64
2024/01/02 13:05:50;;;;;;;0.50;0.40;;;;;;;;;;5029351;28;20381;-64
2024/01/02 13:08:17;;;;;;;2.53;0.40;;;;;;;;;;5021150;28;20059;-65
2024/01/02 13:10:42;;;;;;;1.85;0.28;;;;;;;;;;5023262;28;20857;-64
2024/01/02 13:13:08;;;;;;;0.65;0.40;;;;;;;;;;5021540;28;20026;-64
2024/01/02 13:15:33;;;;;;;0.52;0.32;;;;;;;;;;5022744;28;20034;-68
2024/01/02 13:18:01;;;;;;;1.27;0.30;;;;;;;;;;5030501;28;20036;-69
2024/01/02 13:20:27;;;;;;;2.05;0.35;;;;;;;;;;5029464;28;20277;-68
2024/01/02 13:22:52;;;;;;;0.88;0.30;;;;;;;;;;5031639;28;20283;-67
2024/01/02 13:25:18;;;;;;;0.93;0.30;;;;;;;;;;5023315;28;20037;-68
2024/01/02 13:27:45;;;;;;;0.38;0.30;;;;;;;;;;5023877;28;20093;-69
2024/01/02 13:30:11;;;;;;;1.20;0.20;;;;;;;;;;5026712;28;20057;-68
2024/01/02 13:32:36;;;;;;;0.40;0.40;;;;;;;;;;5021475;28;20512;-68
2024/01/02 13:35:14;;;;;;;0.28;0.28;;;;;;;;;;5024594;28;20026;-68
2024/01/02 13:37:39;;;;;;;0.38;0.30;;;;;;;;;;5027902;28;20025;-69
2024/01/02 13:40:16;;;;;;;0.73;0.30;;;;;;;;;;5025373;28;20029;-68
2024/01/02 13:42:41;;;;;;;1.05;0.40;;;;;;;;;;5027445;28;20325;-69
2024/01/02 13:45:20;;;;;;;0.27;0.23;;;;;;;;;;5023782;28;20446;-68
2024/01/02 13:47:45;;;;;;;0.30;0.25;;;;;;;;;;5027767;28;20263;-68
2024/01/02 13:50:11;;;;;;;2.43;0.40;;;;;;;;;;5031201;28;20017;-69
2024/01/02 13:52:38;;;;;;;0.80;0.45;;;;;;;;;;5027973;28;20267;-69
2024/01/02 13:55:04;;;;;;;1.73;0.40;;;;;;;;;;5031863;28;20227;-69
2024/01/02 13:57:33;;;;;;;0.70;0.28;;;;;;;;;;5030929;28;20112;-68
2024/01/02 14:00:10;;;;;;;3.47;0.52;;;;;;;;;;5033204;28;20037;-67
2024/01/02 14:02:36;;;;;;;0.80;0.45;;;;;;;;;;5022802;28;20113;-68
2024/01/02 14:05:03;;;;;;;0.32;0.22;;;;;;;;;;5029498;28;20100;-69
2024/01/02 14:07:29;;;;;;;0.32;0.20;;;;;;;;;;5031297;28;20399;-68
2024/01/02 14:09:54;;;;;;;0.40;0.30;;;;;;;;;;5026423;28;20020;-68
2024/01/02 14:12:20;;;;;;;0.30;0.30;;;;;;;;;;5030977;28;20026;-67
2024/01/02 14:14:58;;;;;;;0.80;0.50;;;;;;;;;;5030633;28;20036;-69
2024/01/02 14:17:34;;;;;;;0.30;0.30;;;;;;;;;;5027069;28;20571;-68
2024/01/02 14:20:06;;;;;;;0.30;0.30;;;;;;;;;;5020128;28;20495;-68
2024/01/02 14:22:32;;;;;;;;;;;;;;;;;;5030025;28;20025;-69
2024/01/02 14:25:08;;;;;;;0.30;0.30;;;;;;;;;;5032269;28;20487;-69
2024/01/02 14:27:53;;;;;;;0.30;0.30;;;;;;;;;;5028229;28;20075;-67
2024/01/02 14:30:25;;;;;;;0.30;0.30;;;;;;;;;;5030808;28;20037;-68
2024/01/02 14:33:03;;;;;;;0.30;0.30;;;;;;;;;;5026321;28;20075;-68
2024/01/02 14:35:40;;;;;;;0.35;0.32;;;;;;;;;;5023771;28;20033;-69
2024/01/02 14:38:21;;;;;;;0.20;0.20;;;;;;;;;;5023035;28;20073;-68
2024/01/02 14:41:13;;;;;;;2.90;0.32;;;;;;;;;;5033194;28;20021;-69
2024/01/02 14:43:53;;;;;;;0.40;0.40;;;;;;;;;;5016394;28;20037;-69